Time;durP1;ratioP1;P1;durP2;ratioP2;P2;SDS_P1;SDS_P2;PMS_P1;PMS_P2;Temp;Humidity;BMP_temperature;BMP_pressure;BME280_temperature;BME280_humidity;BME280_pressure;Samples;Min_cycle;Max_cycle;Signal;HPM_P1;HPM_P2
2022/01/24 00:00:49;;;;;;;18.20;11.43;;;7.10;99.90;;;;;;5020380;28;20659;-75
2022/01/24 00:03:15;;;;;;;18.90;11.87;;;7.10;99.90;;;;;;5002791;28;20184;-79
2022/01/24 00:05:41;;;;;;;19.27;11.70;;;7.10;99.90;;;;;;5004493;28;20315;-80
2022/01/24 00:08:07;;;;;;;18.40;11.70;;;7.10;99.90;;;;;;5009370;28;20228;-85
2022/01/24 00:10:35;;;;;;;17.60;11.60;;;7.20;99.90;;;;;;5010043;28;20668;-82
2022/01/24 00:18:26;;;;;;;13.90;9.67;;;7.20;99.90;;;;;;5009034;28;20315;-86
2022/01/24 00:29:04;;;;;;;15.27;10.90;;;7.20;99.90;;;;;;5002673;28;20218;-80
2022/01/24 00:31:30;;;;;;;21.53;12.20;;;7.20;99.90;;;;;;5006095;28;20717;-81
2022/01/24 00:33:55;;;;;;;15.60;10.63;;;7.20;99.90;;;;;;5010171;28;20244;-84
2022/01/24 00:36:21;;;;;;;15.43;10.43;;;7.30;99.90;;;;;;5017191;28;20203;-82
2022/01/24 00:38:46;;;;;;;17.17;9.47;;;7.30;99.90;;;;;;5031848;28;20933;-86
2022/01/24 00:41:15;;;;;;;16.40;10.33;;;7.40;99.90;;;;;;5005348;28;20283;-82
2022/01/24 00:46:46;;;;;;;14.67;10.07;;;7.50;99.90;;;;;;4975816;28;20283;-82
2022/01/24 00:49:42;;;;;;;16.17;10.43;;;7.40;99.90;;;;;;5009365;28;20225;-84
2022/01/24 00:54:53;;;;;;;16.63;11.03;;;7.30;99.90;;;;;;5007231;28;20199;-84
2022/01/24 00:57:20;;;;;;;21.17;12.00;;;7.30;99.90;;;;;;5001542;28;20226;-83
2022/01/24 00:59:49;;;;;;;18.90;11.17;;;7.30;99.90;;;;;;5006971;28;20282;-80
2022/01/24 01:02:16;;;;;;;17.23;10.63;;;7.30;99.90;;;;;;5002014;28;20282;-69
2022/01/24 01:07:18;;;;;;;16.20;10.73;;;8.00;99.90;;;;;;5004089;28;20809;-67
2022/01/24 01:18:10;;;;;;;10.87;9.60;;;8.10;99.90;;;;;;5006829;28;20316;-69
2022/01/24 01:20:55;;;;;;;13.60;9.87;;;8.00;99.90;;;;;;5012711;28;20195;-69
2022/01/24 01:23:21;;;;;;;14.17;10.07;;;7.80;99.90;;;;;;5006722;28;20630;-69
2022/01/24 01:25:48;;;;;;;12.47;9.77;;;7.60;99.90;;;;;;5008357;28;20192;-69
2022/01/24 01:28:14;;;;;;;14.87;10.13;;;7.40;99.90;;;;;;5012406;28;20232;-68
2022/01/24 01:30:45;;;;;;;16.23;10.33;;;7.30;99.90;;;;;;5003960;28;20250;-70
2022/01/24 01:33:20;;;;;;;11.50;8.90;;;7.30;99.90;;;;;;5000934;28;20200;-69
2022/01/24 01:38:31;;;;;;;13.20;9.60;;;7.20;99.90;;;;;;5003282;28;20216;-69
2022/01/24 01:52:20;;;;;;;12.00;8.50;;;7.10;99.90;;;;;;5003178;28;20232;-69
2022/01/24 01:57:21;;;;;;;11.33;7.50;;;7.10;99.90;;;;;;5004964;28;20216;-72
2022/01/24 01:59:47;;;;;;;10.83;8.33;;;7.10;99.90;;;;;;5007603;28;20218;-69
2022/01/24 02:02:14;;;;;;;12.23;8.43;;;7.10;99.90;;;;;;5002305;28;20215;-70
2022/01/24 02:04:42;;;;;;;12.13;8.07;;;7.00;99.90;;;;;;5003954;28;20203;-74
2022/01/24 02:07:13;;;;;;;8.80;7.87;;;7.00;99.90;;;;;;4999592;28;20260;-72
2022/01/24 02:09:41;;;;;;;11.30;7.67;;;7.00;99.90;;;;;;5002835;28;20188;-69
2022/01/24 02:12:08;;;;;;;8.77;6.97;;;7.00;99.90;;;;;;4995967;28;20657;-69
2022/01/24 02:14:37;;;;;;;10.00;6.67;;;6.90;99.90;;;;;;5001690;28;20195;-70
2022/01/24 02:17:09;;;;;;;10.30;8.73;;;6.90;99.90;;;;;;5000182;28;20681;-70
2022/01/24 02:19:52;;;;;;;11.93;8.47;;;6.90;99.90;;;;;;5007999;28;20216;-70
2022/01/24 02:22:41;;;;;;;9.93;8.40;;;6.90;99.90;;;;;;5037089;28;20197;-71
2022/01/24 02:25:11;;;;;;;9.40;8.20;;;6.90;99.90;;;;;;5003166;28;20196;-71
2022/01/24 02:27:44;;;;;;;9.60;7.63;;;6.90;99.90;;;;;;5035782;28;20211;-68
2022/01/24 02:30:24;;;;;;;15.57;8.50;;;7.00;99.90;;;;;;5007667;28;20194;-69
2022/01/24 02:32:50;;;;;;;11.33;9.10;;;7.00;99.90;;;;;;5002083;28;20288;-68
2022/01/24 02:35:15;;;;;;;9.27;7.27;;;7.00;99.90;;;;;;5002164;28;20705;-73
2022/01/24 02:37:41;;;;;;;10.90;8.07;;;7.00;99.90;;;;;;5010619;28;20247;-69
2022/01/24 02:40:12;;;;;;;8.73;7.83;;;6.90;99.90;;;;;;5002240;28;20651;-70
2022/01/24 02:48:28;;;;;;;10.63;8.43;;;6.90;99.90;;;;;;4999438;28;20284;-69
2022/01/24 02:51:16;;;;;;;14.57;8.67;;;6.90;99.90;;;;;;5011798;28;20196;-68
2022/01/24 02:53:42;;;;;;;9.67;8.33;;;6.90;99.90;;;;;;5006056;28;20767;-69
2022/01/24 02:56:08;;;;;;;9.80;8.10;;;6.90;99.90;;;;;;4999551;28;20311;-68
2022/01/24 02:58:34;;;;;;;9.30;8.30;;;6.80;99.90;;;;;;5001780;28;20216;-70
2022/01/24 03:01:00;;;;;;;11.93;8.27;;;6.80;99.90;;;;;;5007224;28;20185;-70
2022/01/24 03:03:25;;;;;;;11.43;8.50;;;6.80;99.90;;;;;;4999974;28;20674;-68
2022/01/24 03:05:52;;;;;;;12.03;9.50;;;6.80;99.90;;;;;;5007151;28;20180;-71
2022/01/24 03:08:20;;;;;;;12.43;9.63;;;6.90;99.90;;;;;;5002936;28;20307;-68
2022/01/24 03:10:47;;;;;;;13.53;9.50;;;6.80;99.90;;;;;;5005269;28;20185;-67
2022/01/24 03:15:43;;;;;;;12.83;9.37;;;6.80;99.90;;;;;;5001393;28;20520;-68
2022/01/24 03:18:10;;;;;;;16.70;9.87;;;6.80;99.90;;;;;;5003232;28;20228;-69
2022/01/24 03:20:36;;;;;;;15.17;10.63;;;6.80;99.90;;;;;;5004984;28;20947;-71
2022/01/24 03:23:03;;;;;;;9.93;8.27;;;6.80;99.90;;;;;;5005059;28;20196;-69
2022/01/24 03:25:29;;;;;;;12.90;9.73;;;6.80;99.90;;;;;;5019489;28;20184;-70
2022/01/24 03:27:55;;;;;;;12.27;9.17;;;6.80;99.90;;;;;;5004432;28;20219;-69
2022/01/24 03:30:22;;;;;;;11.30;9.23;;;6.80;99.90;;;;;;5004960;28;20243;-80
2022/01/24 03:32:47;;;;;;;11.57;9.40;;;6.80;99.90;;;;;;5003490;28;20227;-70
2022/01/24 03:35:13;;;;;;;12.07;9.33;;;6.80;99.90;;;;;;5008254;28;20180;-68
2022/01/24 03:37:38;;;;;;;10.10;7.83;;;6.80;99.90;;;;;;5018686;28;20580;-69
2022/01/24 03:40:05;;;;;;;10.27;8.23;;;6.80;99.90;;;;;;5012119;28;20278;-68
2022/01/24 03:42:31;;;;;;;13.07;8.70;;;6.80;99.90;;;;;;5012846;28;20672;-69
2022/01/24 03:45:00;;;;;;;8.97;7.70;;;6.80;99.90;;;;;;5009798;28;20183;-68
2022/01/24 03:49:57;;;;;;;9.37;8.37;;;6.70;99.90;;;;;;5008041;28;20180;-70
2022/01/24 03:52:23;;;;;;;10.63;8.30;;;6.70;99.90;;;;;;5003873;28;20249;-70
2022/01/24 03:54:49;;;;;;;11.03;8.63;;;6.70;99.90;;;;;;5020694;28;20186;-70
2022/01/24 03:57:17;;;;;;;15.23;9.83;;;6.70;99.90;;;;;;5007521;28;20677;-69
2022/01/24 03:59:42;;;;;;;12.00;10.13;;;6.70;99.90;;;;;;5013361;28;20200;-68
2022/01/24 04:02:08;;;;;;;12.37;9.83;;;6.70;99.90;;;;;;5005681;28;20561;-68
2022/01/24 04:04:34;;;;;;;17.50;11.33;;;6.70;99.90;;;;;;5004524;28;20775;-69
2022/01/24 04:07:00;;;;;;;12.93;10.40;;;6.70;99.90;;;;;;5002721;28;20196;-68
2022/01/24 04:09:25;;;;;;;14.63;10.00;;;6.70;99.90;;;;;;5017698;28;20665;-68
2022/01/24 04:11:54;;;;;;;13.87;10.50;;;6.70;99.90;;;;;;5018316;28;20276;-68
2022/01/24 04:17:05;;;;;;;16.10;11.67;;;6.60;99.90;;;;;;5002645;28;20235;-68
2022/01/24 04:22:32;;;;;;;17.43;11.17;;;6.60;99.90;;;;;;4965893;28;20212;-69
2022/01/24 04:25:03;;;;;;;13.40;10.43;;;6.60;99.90;;;;;;5018390;28;20206;-69
2022/01/24 04:27:29;;;;;;;15.77;10.83;;;6.60;99.90;;;;;;4995585;28;20240;-69
2022/01/24 04:29:56;;;;;;;13.63;11.13;;;6.60;99.90;;;;;;5011738;28;20568;-69
2022/01/24 04:32:22;;;;;;;17.57;12.30;;;6.60;99.90;;;;;;5007892;28;20598;-69
2022/01/24 04:34:48;;;;;;;13.87;11.00;;;6.60;99.90;;;;;;5015497;28;20668;-69
2022/01/24 04:37:13;;;;;;;13.60;11.83;;;6.60;99.90;;;;;;5013686;28;20211;-69
2022/01/24 04:39:39;;;;;;;12.93;10.50;;;6.50;99.90;;;;;;5009329;28;20184;-69
2022/01/24 04:42:12;;;;;;;14.50;10.50;;;6.50;99.90;;;;;;5008201;28;20196;-69
2022/01/24 04:44:51;;;;;;;13.70;10.73;;;6.60;99.90;;;;;;5024305;28;20172;-69
2022/01/24 04:47:48;;;;;;;17.37;10.00;;;6.50;99.90;;;;;;4993153;28;20242;-69
2022/01/24 04:52:54;;;;;;;12.87;10.70;;;6.50;99.90;;;;;;5012909;28;20219;-68
2022/01/24 04:55:19;;;;;;;16.90;11.33;;;6.50;99.90;;;;;;5007874;28;20202;-69
2022/01/24 04:57:46;;;;;;;12.77;9.83;;;6.50;99.90;;;;;;5010372;28;20287;-70
2022/01/24 05:00:13;;;;;;;15.70;10.47;;;6.50;99.90;;;;;;5011432;28;20199;-70
2022/01/24 05:02:38;;;;;;;14.97;10.03;;;6.50;99.90;;;;;;5013043;28;20207;-70
2022/01/24 05:05:06;;;;;;;16.63;11.30;;;6.40;99.90;;;;;;5004645;28;20196;-71
2022/01/24 05:07:32;;;;;;;14.07;10.97;;;6.40;99.90;;;;;;5001707;28;20818;-70
2022/01/24 05:10:06;;;;;;;15.00;9.30;;;6.40;99.90;;;;;;5013224;28;20181;-71
2022/01/24 05:25:54;;;;;;;13.87;10.37;;;6.30;99.90;;;;;;4984452;28;20183;-70
2022/01/24 05:28:20;;;;;;;13.80;10.27;;;6.30;99.90;;;;;;5006067;28;20658;-69
2022/01/24 05:30:46;;;;;;;18.53;11.07;;;6.30;99.90;;;;;;5002847;28;20196;-69
2022/01/24 05:33:12;;;;;;;12.60;10.57;;;6.30;99.90;;;;;;5014116;28;20662;-69
2022/01/24 05:35:38;;;;;;;14.90;11.47;;;6.20;99.90;;;;;;5018081;28;20614;-70
2022/01/24 05:38:04;;;;;;;14.00;9.77;;;6.20;99.90;;;;;;5008668;28;20219;-70
2022/01/24 05:40:30;;;;;;;12.77;10.47;;;6.20;99.90;;;;;;5002829;28;20809;-68
2022/01/24 05:42:55;;;;;;;11.93;9.13;;;6.20;99.90;;;;;;5005491;28;20208;-69
2022/01/24 05:45:21;;;;;;;13.50;9.83;;;6.20;99.90;;;;;;5015603;28;20661;-69
2022/01/24 05:47:47;;;;;;;13.03;9.37;;;6.20;99.90;;;;;;5000191;28;20736;-69
2022/01/24 05:50:13;;;;;;;14.57;10.17;;;6.20;99.90;;;;;;5002594;28;20200;-69
2022/01/24 05:52:38;;;;;;;14.07;10.13;;;6.20;99.90;;;;;;5000769;28;20666;-69
2022/01/24 05:55:05;;;;;;;12.67;10.13;;;6.10;99.90;;;;;;5013210;28;20228;-69
2022/01/24 05:57:30;;;;;;;12.10;9.03;;;6.10;99.90;;;;;;5000491;28;20216;-70
2022/01/24 05:59:56;;;;;;;11.80;9.80;;;6.10;99.90;;;;;;5007370;28;20179;-70
2022/01/24 06:02:22;;;;;;;12.00;8.40;;;6.20;99.90;;;;;;5009124;28;20206;-69
2022/01/24 06:04:47;;;;;;;11.10;9.93;;;6.20;99.90;;;;;;5009147;28;20205;-69
2022/01/24 06:07:13;;;;;;;11.70;8.90;;;6.20;99.90;;;;;;5012230;28;20218;-70
2022/01/24 06:09:39;;;;;;;12.27;10.40;;;6.20;99.90;;;;;;5009809;28;20248;-70
2022/01/24 06:12:05;;;;;;;12.90;9.93;;;6.20;99.90;;;;;;5010789;28;20793;-69
2022/01/24 06:14:30;;;;;;;11.97;9.90;;;6.10;99.90;;;;;;5008800;28;20188;-69
2022/01/24 06:16:56;;;;;;;11.47;10.03;;;6.10;99.90;;;;;;5001946;28;20224;-69
2022/01/24 06:19:21;;;;;;;12.27;10.03;;;6.10;99.90;;;;;;5002790;28;20218;-70
2022/01/24 06:21:47;;;;;;;11.70;9.03;;;6.10;99.90;;;;;;4998922;28;20564;-71
2022/01/24 06:24:13;;;;;;;11.17;8.57;;;6.10;99.90;;;;;;5003803;28;20842;-70
2022/01/24 06:26:39;;;;;;;11.73;9.67;;;6.10;99.90;;;;;;5002081;28;20282;-70
2022/01/24 06:29:05;;;;;;;11.27;9.50;;;6.10;99.90;;;;;;5000600;28;20212;-78
2022/01/24 06:31:30;;;;;;;10.90;9.30;;;6.10;99.90;;;;;;5002442;28;20200;-70
2022/01/24 06:33:56;;;;;;;12.67;10.07;;;6.10;99.90;;;;;;4999599;28;20241;-70
2022/01/24 06:36:22;;;;;;;11.30;8.97;;;6.10;99.90;;;;;;5002714;28;20218;-70
2022/01/24 06:38:47;;;;;;;11.93;9.60;;;6.10;99.90;;;;;;5004045;28;20219;-70
2022/01/24 06:41:21;;;;;;;12.17;9.23;;;6.10;99.90;;;;;;5003102;28;20683;-70
2022/01/24 06:43:47;;;;;;;11.00;8.77;;;6.10;99.90;;;;;;5007522;28;20184;-69
2022/01/24 06:46:13;;;;;;;11.73;9.13;;;6.10;99.90;;;;;;5003298;28;20349;-68
2022/01/24 06:48:38;;;;;;;11.70;8.43;;;6.10;99.90;;;;;;5006936;28;20246;-70
2022/01/24 06:51:10;;;;;;;9.00;7.87;;;6.10;99.90;;;;;;5005996;28;20212;-71
2022/01/24 06:53:39;;;;;;;11.07;7.83;;;6.00;99.90;;;;;;5005181;28;20180;-69
2022/01/24 06:56:05;;;;;;;13.77;8.53;;;6.00;99.90;;;;;;5005265;28;20214;-69
2022/01/24 06:58:32;;;;;;;11.50;8.37;;;6.00;99.90;;;;;;5006824;28;20294;-70
2022/01/24 07:00:58;;;;;;;11.43;9.13;;;6.00;99.90;;;;;;5002746;28;20199;-70
2022/01/24 07:03:24;;;;;;;11.10;8.40;;;6.00;99.90;;;;;;5004722;28;20564;-69
2022/01/24 07:05:49;;;;;;;10.93;7.80;;;5.90;99.90;;;;;;5005551;28;20204;-69
2022/01/24 07:08:15;;;;;;;13.13;9.20;;;6.00;99.90;;;;;;5008258;28;20199;-70
2022/01/24 07:10:40;;;;;;;15.07;8.97;;;6.00;99.90;;;;;;5004103;28;20670;-71
2022/01/24 07:13:06;;;;;;;13.93;10.50;;;6.00;99.90;;;;;;5006721;28;20245;-70
2022/01/24 07:15:35;;;;;;;13.80;10.10;;;6.00;99.90;;;;;;5012317;28;20251;-70
2022/01/24 07:20:35;;;;;;;14.17;9.57;;;6.00;99.90;;;;;;5096655;28;20197;-72
2022/01/24 07:23:02;;;;;;;13.60;9.60;;;6.00;99.90;;;;;;5069276;28;20186;-72
2022/01/24 07:25:28;;;;;;;14.53;10.30;;;6.00;99.90;;;;;;5086584;28;20691;-71
2022/01/24 07:27:53;;;;;;;9.43;6.80;;;6.00;99.90;;;;;;5093242;28;20202;-71
2022/01/24 07:30:19;;;;;;;13.60;8.17;;;6.00;99.90;;;;;;5093188;28;20205;-71
2022/01/24 07:32:44;;;;;;;12.63;7.43;;;5.90;99.90;;;;;;5103964;28;20212;-71
2022/01/24 07:35:10;;;;;;;9.60;7.90;;;5.90;99.90;;;;;;5091099;28;20206;-71
2022/01/24 07:37:36;;;;;;;10.57;7.73;;;5.90;99.90;;;;;;5073834;28;20559;-71
2022/01/24 07:40:05;;;;;;;10.20;6.93;;;5.90;99.90;;;;;;5081763;28;20220;-72
2022/01/24 07:45:15;;;;;;;9.53;7.13;;;5.90;99.90;;;;;;5073715;28;20212;-70
2022/01/24 07:47:41;;;;;;;9.07;6.63;;;5.90;99.90;;;;;;5104617;28;20196;-71
2022/01/24 07:50:07;;;;;;;11.30;7.80;;;6.00;99.90;;;;;;5090771;28;20619;-70
2022/01/24 07:52:32;;;;;;;11.93;7.93;;;6.00;99.90;;;;;;5077514;28;20189;-69
2022/01/24 07:54:58;;;;;;;9.60;7.17;;;6.00;99.90;;;;;;5083540;28;20216;-70
2022/01/24 07:57:23;;;;;;;10.20;6.77;;;6.00;99.90;;;;;;5074964;28;20202;-70
2022/01/24 07:59:49;;;;;;;7.80;6.70;;;6.10;99.90;;;;;;5092543;28;20220;-70
2022/01/24 08:02:14;;;;;;;9.60;6.63;;;6.10;99.90;;;;;;5078841;28;20750;-70
2022/01/24 08:04:40;;;;;;;11.83;7.90;;;6.20;99.90;;;;;;5094166;28;20206;-70
2022/01/24 08:07:05;;;;;;;12.83;7.60;;;6.20;99.90;;;;;;5076727;28;20190;-70
2022/01/24 08:09:31;;;;;;;9.67;7.27;;;6.20;99.90;;;;;;5088823;28;20238;-68
2022/01/24 08:11:56;;;;;;;8.97;6.60;;;6.20;99.90;;;;;;5076574;28;20188;-68
2022/01/24 08:14:22;;;;;;;8.53;6.43;;;6.20;99.90;;;;;;5091298;28;20266;-69
2022/01/24 08:16:47;;;;;;;9.00;6.90;;;6.20;99.90;;;;;;5059285;28;20220;-69
2022/01/24 08:19:13;;;;;;;8.00;5.97;;;6.20;99.90;;;;;;5009367;28;20188;-69
2022/01/24 08:21:38;;;;;;;10.20;7.20;;;6.20;99.90;;;;;;5017421;28;20247;-70
2022/01/24 08:24:06;;;;;;;8.53;7.53;;;6.30;99.90;;;;;;5003721;28;20189;-70
2022/01/24 08:26:31;;;;;;;8.90;6.87;;;6.30;99.90;;;;;;5014083;28;20206;-70
2022/01/24 08:28:57;;;;;;;9.47;6.87;;;6.40;99.90;;;;;;5017516;28;20568;-70
2022/01/24 08:31:22;;;;;;;9.33;7.50;;;6.40;99.90;;;;;;5011981;28;20207;-70
2022/01/24 08:33:49;;;;;;;10.10;7.37;;;6.50;99.90;;;;;;5003856;28;20192;-69
2022/01/24 08:36:14;;;;;;;10.07;7.43;;;6.50;99.90;;;;;;5001983;28;20319;-71
2022/01/24 08:38:40;;;;;;;10.67;7.60;;;6.60;99.90;;;;;;5003850;28;21073;-71
2022/01/24 08:41:14;;;;;;;7.33;6.03;;;6.70;99.90;;;;;;5009713;28;20577;-69
2022/01/24 08:46:15;;;;;;;8.80;6.77;;;6.60;99.90;;;;;;5012945;28;20295;-70
2022/01/24 08:48:42;;;;;;;14.67;7.00;;;6.60;99.90;;;;;;5012510;28;20200;-70
2022/01/24 08:51:08;;;;;;;8.20;5.50;;;6.60;99.90;;;;;;5007934;28;20264;-71
2022/01/24 08:53:34;;;;;;;8.40;6.60;;;6.70;99.90;;;;;;5009723;28;20203;-70
2022/01/24 08:56:05;;;;;;;10.77;8.20;;;6.80;99.90;;;;;;5011335;28;20208;-69
2022/01/24 08:58:33;;;;;;;10.23;6.50;;;6.90;99.90;;;;;;5005360;28;20219;-70
2022/01/24 09:00:58;;;;;;;11.83;7.93;;;6.90;99.90;;;;;;5008767;28;20204;-69
2022/01/24 09:03:29;;;;;;;9.03;5.97;;;6.90;99.90;;;;;;5010931;28;20203;-71
2022/01/24 09:05:56;;;;;;;9.40;6.43;;;6.90;99.90;;;;;;5011480;28;20262;-71
2022/01/24 09:08:22;;;;;;;7.57;6.07;;;6.90;99.90;;;;;;5015688;28;20949;-70
2022/01/24 09:10:49;;;;;;;10.13;7.87;;;6.80;99.90;;;;;;5014142;28;20212;-70
2022/01/24 09:13:15;;;;;;;7.67;5.60;;;6.80;99.90;;;;;;5007407;28;20282;-70
2022/01/24 09:15:41;;;;;;;9.07;6.43;;;6.80;99.90;;;;;;5005979;28;20228;-70
2022/01/24 09:18:07;;;;;;;9.47;6.87;;;6.80;99.90;;;;;;5019911;28;20241;-70
2022/01/24 09:20:34;;;;;;;10.03;7.67;;;6.80;99.90;;;;;;5010065;28;20310;-71
2022/01/24 09:23:00;;;;;;;7.83;6.67;;;6.90;99.90;;;;;;5015543;28;20269;-69
2022/01/24 09:25:26;;;;;;;10.43;7.37;;;7.00;99.90;;;;;;5001199;28;20200;-69
2022/01/24 09:27:52;;;;;;;9.03;6.90;;;7.10;99.90;;;;;;5017696;28;20200;-69
2022/01/24 09:30:21;;;;;;;10.77;7.60;;;7.30;99.90;;;;;;5000810;28;20215;-69
2022/01/24 09:32:48;;;;;;;11.83;7.83;;;7.30;99.90;;;;;;5014734;28;20240;-69
2022/01/24 09:35:15;;;;;;;9.47;7.23;;;7.40;99.90;;;;;;5001354;28;20642;-68
2022/01/24 09:37:41;;;;;;;10.77;7.73;;;7.30;99.90;;;;;;5013115;28;20220;-69
2022/01/24 09:40:08;;;;;;;12.80;7.83;;;7.30;99.90;;;;;;5001098;28;20192;-68
2022/01/24 09:42:34;;;;;;;10.50;8.37;;;7.10;99.90;;;;;;5012964;28;20205;-69
2022/01/24 09:45:00;;;;;;;13.47;8.17;;;7.10;99.90;;;;;;5002440;28;20200;-69
2022/01/24 09:47:26;;;;;;;13.47;8.63;;;7.10;99.90;;;;;;5015322;28;20207;-70
2022/01/24 09:49:52;;;;;;;11.63;7.63;;;7.20;99.90;;;;;;5002534;28;20250;-71
2022/01/24 09:52:18;;;;;;;11.40;8.93;;;7.20;99.90;;;;;;5015147;28;20216;-71
2022/01/24 09:54:44;;;;;;;11.03;8.13;;;7.20;99.90;;;;;;5025881;28;20563;-71
2022/01/24 09:57:09;;;;;;;11.17;7.70;;;7.20;99.90;;;;;;5011000;28;20256;-71
2022/01/24 09:59:35;;;;;;;10.30;7.50;;;7.20;99.90;;;;;;5002243;28;20599;-71
2022/01/24 10:02:01;;;;;;;8.33;7.43;;;7.10;99.90;;;;;;5014992;28;20699;-71
2022/01/24 10:04:28;;;;;;;10.27;8.50;;;7.00;99.90;;;;;;5002444;28;20192;-71
2022/01/24 10:07:05;;;;;;;11.70;8.90;;;7.00;99.90;;;;;;5015529;28;20214;-71
2022/01/24 10:09:56;;;;;;;12.07;9.00;;;6.90;99.90;;;;;;5011435;28;20278;-70
2022/01/24 10:17:43;;;;;;;10.60;7.97;;;6.90;99.90;;;;;;5019210;28;20746;-70
2022/01/24 10:20:23;;;;;;;9.43;7.67;;;6.80;99.90;;;;;;5002292;28;20212;-70
2022/01/24 10:23:08;;;;;;;7.77;6.57;;;6.80;99.90;;;;;;5009639;28;20192;-69
2022/01/24 10:26:09;;;;;;;9.37;7.40;;;6.70;99.90;;;;;;5010557;28;20203;-70
2022/01/24 10:28:41;;;;;;;12.17;8.10;;;6.70;99.90;;;;;;5005225;28;20659;-69
2022/01/24 10:31:12;;;;;;;8.73;7.27;;;6.70;99.90;;;;;;5000868;28;20242;-71
2022/01/24 10:34:23;;;;;;;10.03;7.47;;;6.60;99.90;;;;;;5016220;28;20195;-70
2022/01/24 10:36:52;;;;;;;9.57;7.50;;;6.70;99.90;;;;;;5006716;28;20619;-71
2022/01/24 10:39:31;;;;;;;8.43;6.53;;;6.70;99.90;;;;;;5001825;28;20262;-70
2022/01/24 10:45:16;;;;;;;8.83;6.77;;;6.80;99.90;;;;;;5004263;28;20187;-71
2022/01/24 10:47:48;;;;;;;8.93;7.07;;;6.90;99.90;;;;;;5016884;28;20195;-71
2022/01/24 10:50:28;;;;;;;10.87;7.60;;;7.00;99.90;;;;;;5012625;28;20189;-71
2022/01/24 10:52:56;;;;;;;11.63;8.13;;;7.00;99.90;;;;;;5014510;28;20274;-72
2022/01/24 10:55:25;;;;;;;9.00;6.93;;;7.10;99.90;;;;;;5008686;28;20700;-71
2022/01/24 10:58:07;;;;;;;9.40;7.43;;;7.00;99.90;;;;;;5018500;28;20294;-71
2022/01/24 11:00:34;;;;;;;11.53;7.73;;;6.90;99.90;;;;;;4999874;28;20196;-71
2022/01/24 11:03:02;;;;;;;9.07;6.87;;;6.90;99.90;;;;;;5011056;28;20294;-71
2022/01/24 11:05:36;;;;;;;7.87;6.73;;;6.90;99.90;;;;;;5010144;28;20231;-72
2022/01/24 11:08:10;;;;;;;13.73;8.00;;;6.90;99.90;;;;;;5015675;28;20535;-71
2022/01/24 11:10:42;;;;;;;10.63;6.07;;;6.90;99.90;;;;;;5008814;28;20566;-70
2022/01/24 11:13:09;;;;;;;8.83;6.50;;;6.80;99.90;;;;;;5012657;28;20560;-71
2022/01/24 11:15:39;;;;;;;7.43;6.23;;;6.80;99.90;;;;;;5004501;28;20295;-71
2022/01/24 11:18:06;;;;;;;7.93;6.07;;;6.80;99.90;;;;;;5017240;28;20247;-70
2022/01/24 11:20:34;;;;;;;8.97;6.03;;;6.90;99.90;;;;;;4999040;28;20208;-70
2022/01/24 11:23:05;;;;;;;9.90;7.13;;;6.70;99.90;;;;;;5015444;28;20731;-70
2022/01/24 11:25:43;;;;;;;8.93;6.33;;;6.60;99.90;;;;;;5018226;28;20290;-71
2022/01/24 11:28:09;;;;;;;8.63;6.17;;;6.60;99.90;;;;;;4998179;28;20219;-70
2022/01/24 11:30:47;;;;;;;6.80;5.57;;;6.50;99.90;;;;;;5007288;28;20248;-70
2022/01/24 11:33:17;;;;;;;10.30;5.97;;;6.40;99.90;;;;;;5013005;28;20188;-70
2022/01/24 11:35:51;;;;;;;11.87;6.83;;;6.50;99.90;;;;;;5007257;28;20215;-70
2022/01/24 11:38:33;;;;;;;9.37;6.03;;;6.50;99.90;;;;;;5015028;28;20207;-69
2022/01/24 11:41:04;;;;;;;8.43;5.77;;;6.60;99.90;;;;;;5015811;28;20215;-68
2022/01/24 11:43:40;;;;;;;6.67;4.63;;;6.60;99.90;;;;;;5006523;28;20238;-70
2022/01/24 11:46:43;;;;;;;6.17;5.10;;;6.80;99.90;;;;;;5011831;28;20203;-69
2022/01/24 11:49:15;;;;;;;6.37;4.67;;;6.90;99.90;;;;;;5016995;28;20187;-70
2022/01/24 11:51:43;;;;;;;6.73;4.77;;;6.90;99.90;;;;;;5008925;28;20260;-69
2022/01/24 11:54:32;;;;;;;4.73;4.13;;;6.80;99.90;;;;;;5019208;28;20195;-69
2022/01/24 11:57:16;;;;;;;6.50;4.13;;;6.80;99.90;;;;;;5006706;28;20223;-69
2022/01/24 11:59:43;;;;;;;6.17;4.57;;;6.80;99.90;;;;;;5016139;28;20197;-69
2022/01/24 12:02:22;;;;;;;5.97;4.40;;;6.70;99.90;;;;;;5012645;28;20696;-77
2022/01/24 12:04:59;;;;;;;6.50;5.77;;;6.70;99.90;;;;;;5024211;28;20179;-60
2022/01/24 12:07:32;;;;;;;7.50;6.07;;;7.00;99.90;;;;;;5011716;28;20215;-65
2022/01/24 12:10:32;;;;;;;5.90;4.90;;;6.90;99.90;;;;;;5011847;28;20206;-72
2022/01/24 12:13:09;;;;;;;4.97;4.13;;;7.00;99.90;;;;;;5010675;28;20192;-70
2022/01/24 12:15:37;;;;;;;6.83;5.10;;;7.20;99.90;;;;;;4994504;28;20267;-68
2022/01/24 12:18:22;;;;;;;7.13;5.10;;;7.30;99.90;;;;;;5020760;28;20227;-69
2022/01/24 12:20:50;;;;;;;6.20;5.47;;;7.30;99.90;;;;;;5008351;28;20199;-67
2022/01/24 12:23:37;;;;;;;6.67;4.87;;;7.30;99.90;;;;;;5019342;28;20271;-69
2022/01/24 12:26:06;;;;;;;5.53;4.77;;;7.40;99.90;;;;;;5009558;28;20195;-69
2022/01/24 12:28:34;;;;;;;6.87;4.60;;;7.20;99.90;;;;;;5012036;28;20188;-68
2022/01/24 12:31:05;;;;;;;7.43;5.37;;;7.20;99.90;;;;;;5046254;28;20215;-68
2022/01/24 12:33:39;;;;;;;7.47;4.67;;;7.30;99.90;;;;;;5003593;28;20228;-68
2022/01/24 12:36:08;;;;;;;7.87;5.57;;;7.30;99.90;;;;;;4998253;28;20290;-68
2022/01/24 12:38:49;;;;;;;6.27;4.77;;;7.30;99.90;;;;;;5019121;28;20554;-69
2022/01/24 12:41:26;;;;;;;5.20;4.70;;;7.30;99.90;;;;;;5001533;28;20799;-73
2022/01/24 12:44:09;;;;;;;6.97;5.07;;;7.10;99.90;;;;;;5012090;28;20191;-69
2022/01/24 12:46:35;;;;;;;6.10;4.80;;;7.00;99.90;;;;;;4994172;28;20670;-67
2022/01/24 12:49:04;;;;;;;7.87;5.10;;;6.90;99.90;;;;;;5004697;28;20207;-68
2022/01/24 12:51:33;;;;;;;5.50;5.00;;;7.00;99.90;;;;;;5003031;28;20743;-67
2022/01/24 12:54:04;;;;;;;6.10;5.50;;;7.00;99.90;;;;;;4997113;28;20286;-68
2022/01/24 12:56:33;;;;;;;5.57;4.97;;;7.00;99.90;;;;;;5016575;28;20207;-68
2022/01/24 12:58:59;;;;;;;6.63;5.40;;;7.00;99.90;;;;;;5011644;28;20222;-68
2022/01/24 13:01:33;;;;;;;6.33;5.43;;;7.00;99.90;;;;;;5001447;28;20299;-68
2022/01/24 13:04:07;;;;;;;7.13;6.13;;;7.10;99.90;;;;;;5003493;28;20215;-68
2022/01/24 13:06:35;;;;;;;6.93;5.53;;;7.20;99.90;;;;;;5016087;28;20314;-70
2022/01/24 13:09:11;;;;;;;7.60;5.23;;;7.20;99.90;;;;;;5005433;28;20546;-79
2022/01/24 13:11:49;;;;;;;8.50;6.17;;;7.20;99.90;;;;;;4994080;28;20256;-77
2022/01/24 13:14:24;;;;;;;8.33;6.30;;;6.90;99.90;;;;;;5003326;28;20271;-80
2022/01/24 13:22:35;;;;;;;13.43;11.77;;;6.60;99.90;;;;;;5009821;28;20215;-82
2022/01/24 13:25:25;;;;;;;5.83;4.87;;;6.60;99.90;;;;;;5016708;28;20215;-80
2022/01/24 13:27:53;;;;;;;9.53;5.43;;;6.50;99.90;;;;;;5017891;28;20272;-80
2022/01/24 13:30:24;;;;;;;8.80;6.87;;;6.50;99.90;;;;;;5002985;28;20207;-80
2022/01/24 13:32:57;;;;;;;6.03;5.13;;;6.40;99.90;;;;;;5015378;28;20278;-84
2022/01/24 13:35:31;;;;;;;7.77;5.17;;;6.30;99.90;;;;;;5001460;28;20206;-80
2022/01/24 13:38:07;;;;;;;12.87;11.67;;;6.30;99.90;;;;;;5006437;28;20215;-79
2022/01/24 13:40:42;;;;;;;17.30;15.63;;;6.30;99.90;;;;;;5014124;28;20519;-80
2022/01/24 13:43:09;;;;;;;8.53;6.27;;;6.20;99.90;;;;;;5011491;28;20202;-80
2022/01/24 13:45:40;;;;;;;6.13;5.53;;;6.20;99.90;;;;;;5000888;28;20200;-79
2022/01/24 13:48:16;;;;;;;8.67;7.77;;;6.20;99.90;;;;;;5017852;28;20657;-80
2022/01/24 13:50:58;;;;;;;7.43;5.57;;;6.10;99.90;;;;;;5004337;28;20206;-80
2022/01/24 13:53:38;;;;;;;6.57;5.63;;;6.00;99.90;;;;;;5011558;28;20820;-83
2022/01/24 13:56:34;;;;;;;8.13;6.63;;;6.00;99.90;;;;;;4999161;28;20195;-83
2022/01/24 13:59:10;;;;;;;8.67;6.10;;;5.90;99.90;;;;;;5019955;28;20319;-83
2022/01/24 14:01:57;;;;;;;11.47;5.97;;;5.90;99.90;;;;;;4994743;28;20564;-85
2022/01/24 14:04:42;;;;;;;8.83;7.00;;;5.90;99.90;;;;;;5012847;28;20195;-86
2022/01/24 14:07:14;;;;;;;9.50;7.03;;;5.90;99.90;;;;;;5001994;28;20293;-82
2022/01/24 14:09:41;;;;;;;10.03;6.87;;;5.90;99.90;;;;;;5010733;28;20242;-85
2022/01/24 14:12:10;;;;;;;15.07;11.23;;;5.90;99.90;;;;;;5002679;28;20226;-83
2022/01/24 14:14:42;;;;;;;17.50;15.80;;;5.90;99.90;;;;;;5020400;28;20217;-87
2022/01/24 14:19:35;;;;;;;9.00;8.07;;;5.90;99.90;;;;;;5004771;28;20220;-86
2022/01/24 14:22:12;;;;;;;12.53;10.97;;;5.90;99.90;;;;;;5063177;28;20627;-81
2022/01/24 14:25:05;;;;;;;11.70;8.13;;;5.80;99.90;;;;;;5006202;28;20183;-78
2022/01/24 14:27:45;;;;;;;10.00;8.17;;;5.90;99.90;;;;;;5015272;28;20624;-81
2022/01/24 14:30:19;;;;;;;14.10;11.60;;;5.90;99.90;;;;;;5012513;28;20248;-81
2022/01/24 14:33:17;;;;;;;12.90;8.90;;;5.90;99.90;;;;;;5011401;28;20210;-82
2022/01/24 14:35:56;;;;;;;10.03;7.97;;;5.90;99.90;;;;;;5013476;28;20915;-81
2022/01/24 14:38:34;;;;;;;11.77;8.30;;;5.80;99.90;;;;;;5003380;28;20216;-81
2022/01/24 14:41:05;;;;;;;10.97;8.13;;;5.90;99.90;;;;;;5013287;28;20206;-80
2022/01/24 14:46:21;;;;;;;13.10;11.77;;;5.80;99.90;;;;;;5017717;28;20240;-80
2022/01/24 14:48:53;;;;;;;11.90;9.67;;;5.70;99.90;;;;;;5014011;28;20243;-82